10°C Temp
6°C Dewpoint
% Humidity
Temperature
14 KM/H
9 MPH
8 KTS
260°
Due West

Wind Speed
Clear
Conditions
Pressure 1019.92 (hPa) - 30.12 (in)
Visibility 6.2 (mi) - 10.0 (km)

Current Conditions
YBBN
Location 15(km)
Metar :YBBN 051700Z 26008KT CAVOK 10/06 Q1020
Fri 6th August 03:00 am

Airport
  Metar Aviation API Data Provided by https://www.checkwx.com/ PHP scripts by weather34.com ©2021